createdAt,value
2022-11-20T00:01:32.763Z,21.07
2022-11-20T00:04:03.122Z,22.90
2022-11-20T00:06:32.325Z,20.20
2022-11-20T00:09:04.118Z,19.67
2022-11-20T00:11:34.508Z,21.87
2022-11-20T00:14:06.535Z,20.93
2022-11-20T00:16:36.176Z,23.30
2022-11-20T00:19:06.901Z,24.00
2022-11-20T00:21:35.777Z,23.70
2022-11-20T00:24:07.171Z,24.70
2022-11-20T00:26:36.441Z,7.27
2022-11-20T00:29:05.913Z,26.57
2022-11-20T00:31:35.600Z,25.23
2022-11-20T00:34:04.811Z,24.90
2022-11-20T00:36:36.977Z,24.47
2022-11-20T00:39:08.604Z,24.53
2022-11-20T00:41:37.864Z,26.43
2022-11-20T00:44:07.880Z,24.43
2022-11-20T00:46:37.180Z,24.00
2022-11-20T00:49:06.500Z,23.70
2022-11-20T00:51:35.707Z,22.83
2022-11-20T00:54:04.953Z,23.67
2022-11-20T00:56:38.261Z,24.63
2022-11-20T00:59:07.508Z,24.07
2022-11-20T01:01:39.833Z,24.40
2022-11-20T01:04:09.110Z,23.87
2022-11-20T01:06:39.498Z,22.77
2022-11-20T01:09:11.043Z,23.10
2022-11-20T01:11:44.116Z,22.97
2022-11-20T01:14:15.993Z,21.07
2022-11-20T01:16:46.903Z,22.80
2022-11-20T01:19:18.567Z,21.40
2022-11-20T01:21:50.433Z,21.47
2022-11-20T01:24:22.295Z,21.37
2022-11-20T01:26:54.073Z,20.17
2022-11-20T01:29:26.275Z,20.87
2022-11-20T01:31:56.001Z,20.33
2022-11-20T01:34:26.400Z,19.47
2022-11-20T01:36:56.385Z,20.93
2022-11-20T01:39:27.089Z,21.83
2022-11-20T01:42:15.620Z,21.03
2022-11-20T01:44:53.780Z,19.60
2022-11-20T01:47:32.772Z,20.03
2022-11-20T01:50:07.815Z,21.37
2022-11-20T01:52:42.270Z,18.77
2022-11-20T01:55:14.447Z,21.73
2022-11-20T01:57:48.241Z,20.43
2022-11-20T02:00:19.634Z,18.20
2022-11-20T02:02:53.921Z,19.70
2022-11-20T02:05:29.807Z,19.37
2022-11-20T02:08:00.820Z,18.70
2022-11-20T02:10:30.982Z,15.73
2022-11-20T02:13:21.652Z,15.57
2022-11-20T02:15:51.289Z,15.87
2022-11-20T02:18:23.122Z,16.70
2022-11-20T02:20:56.517Z,17.30
2022-11-20T02:23:34.286Z,15.60
2022-11-20T02:26:08.640Z,17.07
2022-11-20T02:28:38.231Z,16.30
2022-11-20T02:31:07.516Z,15.70
2022-11-20T02:33:36.632Z,15.67
2022-11-20T02:36:06.103Z,18.03
2022-11-20T02:38:35.460Z,16.57
2022-11-20T02:41:06.006Z,16.33
2022-11-20T02:43:35.466Z,15.73
2022-11-20T02:46:04.461Z,17.70
2022-11-20T02:48:34.078Z,16.10
2022-11-20T02:51:03.565Z,18.73
2022-11-20T02:53:32.801Z,17.17
2022-11-20T02:56:02.087Z,17.70
2022-11-20T02:58:33.851Z,18.80
2022-11-20T03:01:03.131Z,18.30
2022-11-20T03:03:32.379Z,19.70
2022-11-20T03:06:02.345Z,17.40
2022-11-20T03:08:31.582Z,17.40
2022-11-20T03:11:05.963Z,18.43
2022-11-20T03:13:37.332Z,18.43
2022-11-20T03:16:11.638Z,19.27
2022-11-20T03:18:41.448Z,17.57
2022-11-20T03:21:11.300Z,20.23
2022-11-20T03:23:40.593Z,19.23
2022-11-20T03:26:14.322Z,18.43
2022-11-20T03:28:48.354Z,18.90
2022-11-20T03:31:19.542Z,18.93
2022-11-20T03:33:49.326Z,19.70
2022-11-20T03:36:20.045Z,20.40
2022-11-20T03:38:49.120Z,17.73
2022-11-20T03:41:21.638Z,18.70
2022-11-20T03:43:54.042Z,19.20
2022-11-20T03:46:23.479Z,19.77
2022-11-20T03:48:53.721Z,19.20
2022-11-20T03:51:24.793Z,17.90
2022-11-20T03:53:56.539Z,19.00
2022-11-20T03:56:27.522Z,18.87
2022-11-20T03:58:59.903Z,19.07
2022-11-20T04:01:30.539Z,18.80
2022-11-20T04:04:00.132Z,18.20
2022-11-20T04:06:31.275Z,19.03
2022-11-20T04:09:01.545Z,19.00
2022-11-20T04:11:34.858Z,17.43
2022-11-20T04:14:08.048Z,19.40
2022-11-20T04:16:38.838Z,17.83
2022-11-20T04:19:11.928Z,18.13
2022-11-20T04:21:40.964Z,19.07
2022-11-20T04:24:11.477Z,17.93
2022-11-20T04:26:43.591Z,18.07
2022-11-20T04:29:15.548Z,16.67
2022-11-20T04:31:44.703Z,16.37
2022-11-20T04:34:15.318Z,15.53
2022-11-20T04:36:44.471Z,14.77
2022-11-20T04:39:18.154Z,16.80
2022-11-20T04:41:47.556Z,18.53
2022-11-20T04:44:18.172Z,15.27
2022-11-20T04:46:47.578Z,14.53
2022-11-20T04:49:16.911Z,16.60
2022-11-20T04:51:46.215Z,16.50
2022-11-20T04:54:15.162Z,18.60
2022-11-20T04:56:44.889Z,19.50
2022-11-20T04:59:14.125Z,19.43
2022-11-20T05:01:45.259Z,16.20
2022-11-20T05:04:14.587Z,18.53
2022-11-20T05:06:43.469Z,15.97
2022-11-20T05:09:12.533Z,18.60
2022-11-20T05:11:42.125Z,17.47
2022-11-20T05:14:11.446Z,15.80
2022-11-20T05:16:40.786Z,17.33
2022-11-20T05:19:12.118Z,15.73
2022-11-20T05:21:41.575Z,17.27
2022-11-20T05:24:10.955Z,18.17
2022-11-20T05:26:40.464Z,17.40
2022-11-20T05:29:09.791Z,17.43
2022-11-20T05:31:39.171Z,16.57
2022-11-20T05:34:08.210Z,16.80
2022-11-20T05:36:39.080Z,18.30
2022-11-20T05:39:08.352Z,19.40
2022-11-20T05:41:37.536Z,17.93
2022-11-20T05:44:06.818Z,18.30
2022-11-20T05:46:35.925Z,19.07
2022-11-20T05:49:05.244Z,17.77
2022-11-20T05:51:34.182Z,16.13
2022-11-20T05:54:05.563Z,18.10
2022-11-20T05:56:34.901Z,17.73
2022-11-20T05:59:03.956Z,19.57
2022-11-20T06:01:33.498Z,20.53
2022-11-20T06:04:02.818Z,19.13
2022-11-20T06:06:32.176Z,18.23
2022-11-20T06:09:02.015Z,21.00
2022-11-20T06:11:32.895Z,18.77
2022-11-20T06:14:04.032Z,17.67
2022-11-20T06:16:33.271Z,17.13
2022-11-20T06:19:02.924Z,17.03
2022-11-20T06:21:33.470Z,17.27
2022-11-20T06:24:02.616Z,17.93
2022-11-20T06:26:33.791Z,19.30
2022-11-20T06:29:03.092Z,18.43
2022-11-20T06:31:34.293Z,16.50
2022-11-20T06:34:03.902Z,17.67
2022-11-20T06:36:33.209Z,16.43
2022-11-20T06:39:02.852Z,17.43
2022-11-20T06:41:33.589Z,15.27
2022-11-20T06:44:02.930Z,18.53
2022-11-20T06:46:33.329Z,18.07
2022-11-20T06:49:02.775Z,19.30
2022-11-20T06:51:32.062Z,18.97
2022-11-20T06:54:02.224Z,19.43
2022-11-20T06:56:33.451Z,18.70
2022-11-20T06:59:07.433Z,19.23
2022-11-20T07:01:36.990Z,19.20
2022-11-20T07:04:06.735Z,19.77
2022-11-20T07:06:36.061Z,20.53
2022-11-20T07:09:09.896Z,18.60
2022-11-20T07:11:43.404Z,19.63
2022-11-20T07:14:18.583Z,18.00
2022-11-20T07:16:48.281Z,17.73
2022-11-20T07:19:17.582Z,17.77
2022-11-20T07:21:46.790Z,15.67
2022-11-20T07:24:16.053Z,20.07
2022-11-20T07:26:50.814Z,16.70
2022-11-20T07:29:21.284Z,14.50
2022-11-20T07:31:50.966Z,15.10
2022-11-20T07:34:21.287Z,16.03
2022-11-20T07:36:50.525Z,19.83
2022-11-20T07:39:20.175Z,14.70
2022-11-20T07:41:50.742Z,17.33
2022-11-20T07:44:20.274Z,17.23
2022-11-20T07:46:49.050Z,15.70
2022-11-20T07:49:18.558Z,16.03
2022-11-20T07:51:51.607Z,16.33
2022-11-20T07:54:21.518Z,19.63
2022-11-20T07:56:52.585Z,19.57
2022-11-20T07:59:21.926Z,17.97
2022-11-20T08:01:51.069Z,21.77
2022-11-20T08:04:20.402Z,19.60
2022-11-20T08:06:48.950Z,16.53
2022-11-20T08:09:17.883Z,20.53
2022-11-20T08:12:04.217Z,20.67
2022-11-20T08:14:35.160Z,17.00
2022-11-20T08:17:04.255Z,18.10
2022-11-20T08:19:33.519Z,17.47
2022-11-20T08:22:03.314Z,19.93
2022-11-20T08:24:34.854Z,20.60
2022-11-20T08:27:03.837Z,21.07
2022-11-20T08:29:34.402Z,20.70
2022-11-20T08:32:03.150Z,19.90
2022-11-20T08:34:32.026Z,20.07
2022-11-20T08:37:01.263Z,18.70
2022-11-20T08:39:30.000Z,17.37
2022-11-20T08:41:59.213Z,19.17
2022-11-20T08:44:28.122Z,17.77
2022-11-20T08:46:59.266Z,17.03
2022-11-20T08:49:28.237Z,16.70
2022-11-20T08:51:56.864Z,17.00
2022-11-20T08:54:26.759Z,16.07
2022-11-20T08:56:55.432Z,17.33
2022-11-20T08:59:44.074Z,17.07
2022-11-20T09:02:14.832Z,17.77
2022-11-20T09:04:43.427Z,16.83
2022-11-20T09:07:14.037Z,16.63
2022-11-20T09:09:42.926Z,17.47
2022-11-20T09:12:13.751Z,18.83
2022-11-20T09:14:43.110Z,18.30
2022-11-20T09:17:16.759Z,17.33
2022-11-20T09:19:45.938Z,17.13
2022-11-20T09:22:15.188Z,17.57
2022-11-20T09:24:44.611Z,15.27
2022-11-20T09:27:13.524Z,17.23
2022-11-20T09:29:42.590Z,18.53
2022-11-20T09:32:11.867Z,14.93
2022-11-20T09:34:43.647Z,15.10
2022-11-20T09:37:12.906Z,16.40
2022-11-20T09:39:42.449Z,16.70
2022-11-20T09:42:30.677Z,16.50
2022-11-20T09:45:25.522Z,17.37
2022-11-20T09:48:31.914Z,17.47
2022-11-20T09:51:13.210Z,17.53
2022-11-20T09:53:54.532Z,14.93
2022-11-20T09:56:24.615Z,14.83
2022-11-20T09:58:55.850Z,14.17
2022-11-20T10:01:40.554Z,15.83
2022-11-20T10:04:18.481Z,16.70
2022-11-20T10:07:17.167Z,17.33
2022-11-20T10:09:52.438Z,17.77
2022-11-20T10:12:28.430Z,17.23
2022-11-20T10:15:15.921Z,17.37
2022-11-20T10:18:13.954Z,17.57
2022-11-20T10:20:51.570Z,18.80
2022-11-20T10:23:47.357Z,17.33
2022-11-20T10:26:25.001Z,18.67
2022-11-20T10:29:11.100Z,18.60
2022-11-20T10:31:43.109Z,17.97
2022-11-20T10:34:23.486Z,17.50
2022-11-20T10:36:59.021Z,15.23
2022-11-20T10:39:37.101Z,14.60
2022-11-20T10:42:13.801Z,12.97
2022-11-20T10:45:07.561Z,13.73
2022-11-20T10:47:38.824Z,15.33
2022-11-20T10:50:14.500Z,14.87
2022-11-20T10:52:59.223Z,15.47
2022-11-20T10:55:35.957Z,15.57
2022-11-20T10:58:14.041Z,15.80
2022-11-20T11:00:43.730Z,15.47
2022-11-20T11:03:26.570Z,15.27
2022-11-20T11:06:01.520Z,14.60
2022-11-20T11:08:36.342Z,13.63
2022-11-20T11:11:24.637Z,11.97
2022-11-20T11:13:53.842Z,12.73
2022-11-20T11:16:25.128Z,13.17
2022-11-20T11:19:05.796Z,14.07
2022-11-20T11:21:35.522Z,13.20
2022-11-20T11:24:34.822Z,14.30
2022-11-20T11:27:00.755Z,13.77
2022-11-20T11:29:30.856Z,13.40
2022-11-20T11:32:08.290Z,15.57
2022-11-20T11:34:38.112Z,14.73
2022-11-20T11:37:08.362Z,12.30
2022-11-20T11:39:38.531Z,12.07
2022-11-20T11:42:11.426Z,12.77
2022-11-20T11:45:03.589Z,11.80
2022-11-20T11:47:34.475Z,11.40
2022-11-20T11:50:06.015Z,11.33
2022-11-20T11:52:40.611Z,11.90
2022-11-20T11:55:18.310Z,11.37
2022-11-20T11:57:54.630Z,8.73
2022-11-20T12:00:25.183Z,10.40
2022-11-20T12:03:07.240Z,10.23
2022-11-20T12:05:44.287Z,11.40
2022-11-20T12:08:21.698Z,9.53
2022-11-20T12:10:58.571Z,11.00
2022-11-20T12:13:47.688Z,12.07
2022-11-20T12:16:20.710Z,10.80
2022-11-20T12:18:52.831Z,9.93
2022-11-20T12:21:32.035Z,10.90
2022-11-20T12:24:33.345Z,9.67
2022-11-20T12:27:20.415Z,10.43
2022-11-20T12:29:59.980Z,12.17
2022-11-20T12:33:02.127Z,11.33
2022-11-20T12:35:50.795Z,11.17
2022-11-20T12:38:58.077Z,10.57
2022-11-20T12:42:01.168Z,10.30
2022-11-20T12:45:05.290Z,11.13
2022-11-20T12:47:54.920Z,11.63
2022-11-20T12:50:53.180Z,11.13
2022-11-20T12:53:34.582Z,10.50
2022-11-20T12:56:14.467Z,12.10
2022-11-20T12:58:51.922Z,9.87
2022-11-20T13:01:43.881Z,11.33
2022-11-20T13:04:27.199Z,10.00
2022-11-20T13:06:58.981Z,10.40
2022-11-20T13:09:29.792Z,9.47
2022-11-20T13:12:06.788Z,11.77
2022-11-20T13:14:42.993Z,10.37
2022-11-20T13:17:25.490Z,9.57
2022-11-20T13:19:59.929Z,10.43
2022-11-20T13:22:32.744Z,10.50
2022-11-20T13:25:02.264Z,10.27
2022-11-20T13:27:32.375Z,10.53
2022-11-20T13:30:18.893Z,9.30
2022-11-20T13:32:56.389Z,9.53
2022-11-20T13:35:33.590Z,9.57
2022-11-20T13:38:08.779Z,10.23
2022-11-20T13:40:41.173Z,10.30
2022-11-20T13:43:26.302Z,9.37
2022-11-20T13:46:01.247Z,11.30
2022-11-20T13:48:34.893Z,13.50
2022-11-20T13:51:33.384Z,9.17
2022-11-20T13:54:38.763Z,11.37
2022-11-20T13:57:35.947Z,12.60
2022-11-20T14:00:14.448Z,11.43
2022-11-20T14:02:44.910Z,11.90
2022-11-20T14:05:23.101Z,12.60
2022-11-20T14:07:55.830Z,12.23
2022-11-20T14:10:31.767Z,13.00
2022-11-20T14:13:12.996Z,18.17
2022-11-20T14:15:45.183Z,13.97
2022-11-20T14:18:24.648Z,13.13
2022-11-20T14:20:54.353Z,12.60
2022-11-20T14:23:31.251Z,11.93
2022-11-20T14:26:00.730Z,16.03
2022-11-20T14:28:31.977Z,18.73
2022-11-20T14:31:01.018Z,19.63
2022-11-20T14:33:31.205Z,22.70
2022-11-20T14:36:01.875Z,22.33
2022-11-20T14:38:35.833Z,18.00
2022-11-20T14:41:22.393Z,14.43
2022-11-20T14:43:57.736Z,12.93
2022-11-20T14:46:28.054Z,11.03
2022-11-20T14:49:00.647Z,10.67
2022-11-20T14:51:34.913Z,11.00
2022-11-20T14:54:13.788Z,10.60
2022-11-20T14:56:43.119Z,10.63
2022-11-20T14:59:13.028Z,10.97
2022-11-20T15:01:42.639Z,10.67
2022-11-20T15:04:14.045Z,11.63
2022-11-20T15:06:55.479Z,11.33
2022-11-20T15:09:30.205Z,14.53
2022-11-20T15:12:02.813Z,12.97
2022-11-20T15:14:35.428Z,12.77
2022-11-20T15:17:05.237Z,13.43
2022-11-20T15:19:35.619Z,15.00
2022-11-20T15:22:04.973Z,15.60
2022-11-20T15:24:35.954Z,14.20
2022-11-20T15:27:05.575Z,16.60
2022-11-20T15:29:34.259Z,17.80
2022-11-20T15:32:07.986Z,20.53
2022-11-20T15:34:41.968Z,19.60
2022-11-20T15:37:11.365Z,19.03
2022-11-20T15:39:47.321Z,19.23
2022-11-20T15:42:17.549Z,20.90
2022-11-20T15:44:46.873Z,34.43
2022-11-20T15:47:31.871Z,19.30
2022-11-20T15:50:02.980Z,32.13
2022-11-20T15:52:42.243Z,24.93
2022-11-20T15:55:14.367Z,21.20
2022-11-20T15:57:43.684Z,21.77
2022-11-20T16:00:17.056Z,22.67
2022-11-20T16:02:48.637Z,23.87
2022-11-20T16:05:20.388Z,21.57
2022-11-20T16:07:52.230Z,23.90
2022-11-20T16:10:23.405Z,24.97
2022-11-20T16:13:10.137Z,29.73
2022-11-20T16:15:50.169Z,26.57
2022-11-20T16:18:23.286Z,24.97
2022-11-20T16:20:55.991Z,32.87
2022-11-20T16:23:27.570Z,31.57
2022-11-20T16:25:59.756Z,31.73
2022-11-20T16:28:29.335Z,29.90
2022-11-20T16:30:58.750Z,33.83
2022-11-20T16:33:29.220Z,37.63
2022-11-20T16:35:58.493Z,38.07
2022-11-20T16:38:27.795Z,36.03
2022-11-20T16:41:04.433Z,34.23
2022-11-20T16:43:36.180Z,38.20
2022-11-20T16:46:07.496Z,40.23
2022-11-20T16:48:37.688Z,40.37
2022-11-20T16:51:11.435Z,44.50
2022-11-20T16:53:42.196Z,41.43
2022-11-20T16:56:16.710Z,33.27
2022-11-20T16:58:46.663Z,32.23
2022-11-20T17:01:17.240Z,26.63
2022-11-20T17:03:48.334Z,33.30
2022-11-20T17:06:19.480Z,35.90
2022-11-20T17:08:49.465Z,33.87
2022-11-20T17:11:21.761Z,35.10
2022-11-20T17:13:51.896Z,37.03
2022-11-20T17:16:22.594Z,30.47
2022-11-20T17:18:52.260Z,33.60
2022-11-20T17:21:22.861Z,27.23
2022-11-20T17:23:51.892Z,29.13
2022-11-20T17:26:24.222Z,26.30
2022-11-20T17:28:57.012Z,27.03
2022-11-20T17:31:26.832Z,24.67
2022-11-20T17:33:56.673Z,23.27
2022-11-20T17:36:26.084Z,21.17
2022-11-20T17:38:55.126Z,19.93
2022-11-20T17:41:27.825Z,19.17
2022-11-20T17:43:58.159Z,16.43
2022-11-20T17:46:29.012Z,18.00
2022-11-20T17:48:58.790Z,15.70
2022-11-20T17:51:29.500Z,13.33
2022-11-20T17:54:01.227Z,14.47
2022-11-20T17:56:52.790Z,15.07
2022-11-20T17:59:23.984Z,16.47
2022-11-20T18:01:56.808Z,16.93
2022-11-20T18:04:29.031Z,17.00
2022-11-20T18:06:58.563Z,16.23
2022-11-20T18:09:27.984Z,17.17
2022-11-20T18:11:58.827Z,17.73
2022-11-20T18:14:29.835Z,16.60
2022-11-20T18:17:02.175Z,17.50
2022-11-20T18:19:33.151Z,16.27
2022-11-20T18:22:06.634Z,15.87
2022-11-20T18:24:37.134Z,16.23
2022-11-20T18:27:10.092Z,13.63
2022-11-20T18:29:40.373Z,14.30
2022-11-20T18:32:10.017Z,17.07
2022-11-20T18:34:39.985Z,23.17
2022-11-20T18:37:10.456Z,22.83
2022-11-20T18:39:40.025Z,30.87
2022-11-20T18:42:45.449Z,35.73
2022-11-20T18:45:15.665Z,21.30
2022-11-20T18:47:45.011Z,27.10
2022-11-20T18:50:14.782Z,22.97
2022-11-20T18:52:47.609Z,23.43
2022-11-20T18:55:17.595Z,27.77
2022-11-20T18:57:48.576Z,25.57
2022-11-20T19:00:18.432Z,26.87
2022-11-20T19:02:48.850Z,27.57
2022-11-20T19:05:18.192Z,25.37
2022-11-20T19:07:49.333Z,23.53
2022-11-20T19:10:20.998Z,24.10
2022-11-20T19:12:53.495Z,24.20
2022-11-20T19:15:23.509Z,26.17
2022-11-20T19:17:52.838Z,30.77
2022-11-20T19:20:22.043Z,30.57
2022-11-20T19:22:54.995Z,31.67
2022-11-20T19:25:25.182Z,30.87
2022-11-20T19:27:56.344Z,40.00
2022-11-20T19:30:25.940Z,35.90
2022-11-20T19:32:58.563Z,34.63
2022-11-20T19:35:27.996Z,29.23
2022-11-20T19:38:00.209Z,31.87
2022-11-20T19:40:33.562Z,32.90
2022-11-20T19:43:05.637Z,30.97
2022-11-20T19:45:35.865Z,27.43
2022-11-20T19:48:07.991Z,23.10
2022-11-20T19:50:37.986Z,32.23
2022-11-20T19:53:07.628Z,30.37
2022-11-20T19:55:36.958Z,26.87
2022-11-20T19:58:08.169Z,28.07
2022-11-20T20:00:37.668Z,32.97
2022-11-20T20:03:06.882Z,32.40
2022-11-20T20:05:36.490Z,31.37
2022-11-20T20:08:06.400Z,30.27
2022-11-20T20:10:35.790Z,31.23
2022-11-20T20:13:05.293Z,31.97
2022-11-20T20:15:36.061Z,30.10
2022-11-20T20:18:05.432Z,31.93
2022-11-20T20:20:34.839Z,29.60
2022-11-20T20:23:07.671Z,31.53
2022-11-20T20:25:39.266Z,29.80
2022-11-20T20:28:09.679Z,44.30
2022-11-20T20:30:40.622Z,40.17
2022-11-20T20:33:10.279Z,31.07
2022-11-20T20:35:43.423Z,31.23
2022-11-20T20:38:12.860Z,33.00
2022-11-20T20:40:47.518Z,31.93
2022-11-20T20:43:17.332Z,32.17
2022-11-20T20:45:50.294Z,30.13
2022-11-20T20:48:24.229Z,32.60
2022-11-20T20:50:57.270Z,33.20
2022-11-20T20:53:28.170Z,33.47
2022-11-20T20:55:58.257Z,36.70
2022-11-20T20:58:28.122Z,33.43
2022-11-20T21:01:04.257Z,27.27
2022-11-20T21:03:49.523Z,30.97
2022-11-20T21:06:22.759Z,33.50
2022-11-20T21:08:52.583Z,30.83
2022-11-20T21:11:22.552Z,31.20
2022-11-20T21:13:52.166Z,34.80
2022-11-20T21:16:25.330Z,31.30
2022-11-20T21:18:54.865Z,31.57
2022-11-20T21:21:41.061Z,32.87
2022-11-20T21:24:10.616Z,30.33
2022-11-20T21:26:40.195Z,32.40
2022-11-20T21:29:11.343Z,31.33
2022-11-20T21:31:44.057Z,35.27
2022-11-20T21:34:14.185Z,33.40
2022-11-20T21:36:43.635Z,31.77
2022-11-20T21:39:13.751Z,34.43
2022-11-20T21:41:44.047Z,43.67
2022-11-20T21:44:30.507Z,42.43
2022-11-20T21:47:02.224Z,39.93
2022-11-20T21:49:31.772Z,42.17
2022-11-20T21:52:04.441Z,47.43
2022-11-20T21:54:36.320Z,43.77
2022-11-20T21:57:07.828Z,38.87
2022-11-20T21:59:37.915Z,33.70
2022-11-20T22:02:09.711Z,37.90
2022-11-20T22:04:39.205Z,37.07
2022-11-20T22:07:08.357Z,36.53
2022-11-20T22:09:37.202Z,34.40
2022-11-20T22:12:07.331Z,32.80
2022-11-20T22:14:35.393Z,33.93
2022-11-20T22:17:06.648Z,35.20
2022-11-20T22:19:37.290Z,34.73
2022-11-20T22:22:06.337Z,34.00
2022-11-20T22:24:35.544Z,32.33
2022-11-20T22:27:07.263Z,33.00
2022-11-20T22:29:36.596Z,33.43
2022-11-20T22:32:06.600Z,31.23
2022-11-20T22:34:37.455Z,30.07
2022-11-20T22:37:06.755Z,31.37
2022-11-20T22:39:36.029Z,30.43
2022-11-20T22:42:05.067Z,30.27
2022-11-20T22:44:34.527Z,32.43
2022-11-20T22:47:08.690Z,32.63
2022-11-20T22:49:42.275Z,30.93
2022-11-20T22:52:11.255Z,30.20
2022-11-20T22:54:39.851Z,30.80
2022-11-20T22:57:09.515Z,29.30
2022-11-20T22:59:40.731Z,28.47
2022-11-20T23:02:12.772Z,26.70
2022-11-20T23:04:42.956Z,27.57
2022-11-20T23:07:13.783Z,26.87
2022-11-20T23:09:42.879Z,26.73
2022-11-20T23:12:12.377Z,27.70
2022-11-20T23:14:41.306Z,27.77
2022-11-20T23:17:11.373Z,27.33
2022-11-20T23:19:40.693Z,27.13
2022-11-20T23:22:11.147Z,25.83
2022-11-20T23:24:40.697Z,25.70
2022-11-20T23:27:09.724Z,25.30
2022-11-20T23:29:38.730Z,27.40
2022-11-20T23:32:08.138Z,28.87
2022-11-20T23:34:37.432Z,28.43
2022-11-20T23:37:06.637Z,29.17
2022-11-20T23:39:37.287Z,27.73
2022-11-20T23:42:06.380Z,27.40
2022-11-20T23:44:35.267Z,27.70
2022-11-20T23:47:04.399Z,29.10
2022-11-20T23:49:34.145Z,28.33
2022-11-20T23:52:03.864Z,27.03
2022-11-20T23:54:35.402Z,26.17
2022-11-20T23:57:05.986Z,24.43
2022-11-20T23:59:34.945Z,19.77
